• Join FlightAware (Why Join?)
  • Login
  • US Flag 
10:10PM EDT


 

Airport Tracker/Info


-or-


 

Live Flight TrackerFlight Track Log ✈ GJS3707 ✈ 06-Jul-2013 ✈ KBOI - KORD

Flight Track Log - Related Links

Times and Time Zones

All times are in EDT time to prevent confusion due to time zone crossing. See the GJS3707 flight status page for this flight to view local times or setup timezone preferences in your user account.

Time Position Orientation Groundspeed Altitude Reporting Facility
EDT Latitude Longitude Course Direction KTS MPH feet Rate Location/Type
03:07PM 43.6203 -116.3461 311° West 224 258 6,000  Level Salt Lake Center
03:08PM 43.6725 -116.2844 40° Northeast 266 306 7,600 1,740 Climbing Salt Lake Center
03:09PM 43.6495 -115.5547 82° East  Level FlightAware Approximate
03:09PM 43.7206 -116.1817 57° Northeast 293 337 9,700  Level Salt Lake Center
03:10PM 43.6716 -115.3896 81° East  Level FlightAware Approximate
03:10PM 43.7336 -116.0689 81° East 312 359 11,100  Level Salt Lake Center
03:11PM 43.7009 -115.2252 81° East  Level FlightAware Approximate
03:11PM 43.7500 -115.9172 81° East 355 409 12,700  Level Salt Lake Center
03:12PM 43.7198 -115.0564 81° East  Level FlightAware Approximate
03:13PM 43.7644 -115.7819 82° East 371 427 14,600  Level Salt Lake Center
03:14PM 43.7811 -115.6206 82° East 381 438 16,300 1,500 Climbing Salt Lake Center
03:15PM 43.7958 -115.4761 82° East 394 453 17,800 1,560 Climbing Salt Lake Center
03:16PM 43.8150 -115.3008 81° East 409 471 19,600 1,500 Climbing Salt Lake Center
03:17PM 43.8306 -115.1458 82° East 422 486 21,000 1,440 Climbing Salt Lake Center
03:18PM 43.8489 -114.9622 82° East 434 499 22,600 1,380 Climbing Salt Lake Center
03:19PM 43.8650 -114.8019 82° East 439 505 23,900 1,200 Climbing Salt Lake Center
03:20PM 43.8842 -114.6119 82° East 448 516 25,200 1,020 Climbing Salt Lake Center
03:21PM 43.8994 -114.4461 83° East 454 522 26,100 1,020 Climbing Salt Lake Center
03:22PM 43.9192 -114.2492 82° East 461 531 27,400 960 Climbing Salt Lake Center
03:23PM 43.9353 -114.0778 83° East 469 540 28,100 600 Climbing Salt Lake Center
03:24PM 43.9531 -113.8867 83° East 482 555 28,700 780 Climbing Salt Lake Center
03:25PM 43.9686 -113.7081 83° East 487 560 29,700 1,020 Climbing Salt Lake Center
03:26PM 43.9847 -113.4994 84° East 487 560 30,800 960 Climbing Salt Lake Center
03:27PM 44.0022 -113.3219 82° East 486 559 31,800 900 Climbing Salt Lake Center
03:28PM 44.0742 -113.1367 62° Northeast 485 558 32,700 720 Climbing Salt Lake Center
03:29PM 44.1333 -112.9764 63° Northeast 486 559 33,400 540 Climbing Salt Lake Center
03:30PM 44.2178 -112.7961 57° Northeast 498 573 33,900 480 Climbing Salt Lake Center
03:31PM 44.2922 -112.6400 56° Northeast 503 579 34,400 480 Climbing Salt Lake Center
03:32PM 44.3650 -112.4803 57° Northeast 509 586 35,000 660 Climbing Salt Lake Center
03:33PM 44.4094 -112.2736 73° East 504 580 35,800 660 Climbing Salt Lake Center
03:34PM 44.4092 -112.0892 90° East 497 572 36,400 540 Climbing Salt Lake Center
03:35PM 44.3986 -111.8775 94° East 492 566 37,000 240 Climbing Salt Lake Center
03:36PM 44.3889 -111.6956 94° East 494 568 37,000  Level Salt Lake Center
03:37PM 44.3775 -111.4806 94° East 502 578 37,000  Level Salt Lake Center
03:38PM 44.3683 -111.2961 94° East 506 582 37,000  Level Salt Lake Center
03:39PM 44.3564 -111.0797 94° East 504 580 37,000  Level Salt Lake Center
03:40PM 44.3456 -110.8942 95° East 505 581 37,000  Level Salt Lake Center
03:41PM 44.3322 -110.6772 95° East 505 581 37,000  Level Salt Lake Center
03:42PM 44.3203 -110.4903 95° East 506 582 37,000  Level Salt Lake Center
03:43PM 44.3081 -110.2714 94° East 506 582 37,000  Level Salt Lake Center
03:44PM 44.2972 -110.0853 95° East 503 579 37,000  Level Salt Lake Center
03:45PM 44.2831 -109.8672 95° East 506 582 37,100 300 Climbing Salt Lake Center
03:47PM 44.2700 -109.6833 96° East 501 577 37,700 480 Climbing Salt Lake Center
03:48PM 44.2567 -109.5019 96° East 495 570 38,200 480 Climbing Salt Lake Center
03:49PM 44.2414 -109.2972 96° East 489 563 38,700 360 Climbing Salt Lake Center
03:50PM 44.2278 -109.1131 96° East 482 555 39,000 120 Climbing Salt Lake Center
03:51PM 44.2144 -108.9275 96° East 483 556 39,000  Level Salt Lake Center
03:52PM 44.2000 -108.7417 96° East 485 558 39,000  Level Salt Lake Center
03:53PM 44.1833 -108.5178 96° East 488 562 39,000  Level Salt Lake Center
03:54PM 44.1678 -108.3311 97° East 488 562 39,000  Level Salt Lake Center
03:55PM 44.1517 -108.1442 97° East 491 565 39,000  Level Salt Lake Center
03:56PM 44.1367 -107.9572 96° East 491 565 39,000  Level Salt Lake Center
03:57PM 44.1208 -107.7717 97° East 488 562 39,000  Level Salt Lake Center
03:58PM 44.1039 -107.5811 97° East 497 572 39,000  Level Salt Lake Center
03:59PM 44.0844 -107.3528 97° East 500 575 39,000  Level Salt Lake Center
04:00PM 44.0672 -107.1611 97° East 501 577 39,000  Level Salt Lake Center
04:01PM 44.0539 -107.0075 97° East 500 575 39,000  Level Denver Center
04:02PM 44.0350 -106.8025 97° East 506 582 39,000  Level Denver Center
04:03PM 44.0150 -106.5875 97° East 504 580 39,000  Level Denver Center
04:04PM 44.0003 -106.4014 96° East 507 583 39,000  Level Denver Center
04:05PM 44.0028 -106.2122 89° East 508 585 39,000  Level Denver Center
04:06PM 44.0033 -105.9925 90° East 509 586 39,000  Level Denver Center
04:07PM 44.0039 -105.8031 90° East 511 588 39,000  Level Denver Center
04:08PM 43.9889 -105.5858 95° East 509 586 39,000  Level Denver Center
04:09PM 43.9747 -105.3994 96° East 507 583 39,000  Level Denver Center
04:10PM 43.9550 -105.1822 97° East 508 585 39,000  Level Denver Center
04:11PM 43.9372 -104.9958 97° East 509 586 39,000  Level Denver Center
04:12PM 43.9139 -104.8156 100° East 502 578 39,000  Level Denver Center
04:13PM 43.8828 -104.6053 102° East 499 574 39,000  Level Denver Center
04:14PM 43.8558 -104.4292 102° East 491 565 39,000  Level Denver Center
04:15PM 43.8239 -104.2214 102° East 490 564 39,000  Level Denver Center
04:16PM 43.7969 -104.0461 102° East 487 560 39,000  Level Denver Center
04:17PM 43.7697 -103.8703 102° East 486 559 39,000  Level Denver Center
04:18PM 43.7372 -103.6669 102° East 484 557 39,000  Level Denver Center
04:19PM 43.7089 -103.4925 103° East 483 556 39,000  Level Denver Center
04:20PM 43.6761 -103.2900 103° East 483 556 39,000  Level Denver Center
04:21PM 43.6481 -103.1158 102° East 485 558 39,000  Level Denver Center
04:22PM 43.6169 -102.9122 102° East 485 558 39,000  Level Denver Center
04:23PM 43.6061 -102.7347 95° East 486 559 39,000  Level Denver Center
04:24PM 43.6025 -102.5575 92° East 485 558 39,000  Level Denver Center
04:25PM 43.6106 -102.3525 87° East 483 556 39,000  Level Denver Center
04:26PM 43.6169 -102.1750 87° East 484 557 39,000  Level Denver Center
04:27PM 43.6206 -101.9867 88° East 485 558 39,000  Level Denver Center
04:29PM 43.6261 -101.8006 88° East 488 562 39,000  Level Denver Center
04:30PM 43.6300 -101.6150 88° East 487 560 39,000  Level Denver Center
04:31PM 43.6367 -101.3900 88° East 490 564 39,000  Level Denver Center
04:32PM 43.6408 -101.2039 88° East 489 563 39,000  Level Denver Center
04:33PM 43.6436 -101.0153 89° East 492 566 39,000  Level Denver Center
04:34PM 43.6469 -100.8267 89° East 494 568 39,000  Level Denver Center
04:35PM 43.6381 -100.6392 94° East 494 568 39,000  Level Denver Center
04:36PM 43.6153 -100.4578 100° East 484 557 39,000  Level Denver Center
04:37PM 43.5900 -100.2708 101° East 493 567 39,000  Level Denver Center
04:38PM 43.5647 -100.0842 101° East 497 572 39,000  Level Denver Center
04:39PM 43.5342 -99.8625 101° East 494 568 39,000  Level Denver Center
04:40PM 43.5078 -99.6761 101° East 496 571 39,000  Level Denver Center
04:41PM 43.4819 -99.4894 101° East 498 573 39,000  Level Denver Center
04:42PM 43.4444 -99.2322 101° East 495 570 39,000  Level Minneapolis Center
04:44PM 43.4122 -99.0103 101° East 495 570 39,000  Level Minneapolis Center
04:45PM 43.3822 -98.8033 101° East 495 570 39,000  Level Minneapolis Center
04:46PM 43.3572 -98.5808 99° East 493 567 39,000  Level Minneapolis Center
04:47PM 43.3389 -98.3931 98° East 498 573 39,000  Level Minneapolis Center
04:48PM 43.3167 -98.1697 98° East 493 567 39,000  Level Minneapolis Center
04:49PM 43.2978 -97.9850 98° East 493 567 39,000  Level Minneapolis Center
04:50PM 43.2750 -97.7656 98° East 486 559 39,000  Level Minneapolis Center
04:51PM 43.2547 -97.5808 99° East 490 564 39,000  Level Minneapolis Center
04:52PM 43.2353 -97.3975 98° East 489 563 39,000  Level Minneapolis Center
04:53PM 43.2111 -97.1789 99° East 487 560 39,000  Level Minneapolis Center
04:54PM 43.1869 -96.9608 99° East 486 559 39,000  Level Minneapolis Center
04:56PM 43.1661 -96.7797 99° East 487 560 39,000  Level Minneapolis Center
04:57PM 43.1456 -96.6006 99° East 481 554 39,000  Level Minneapolis Center
04:58PM 43.1250 -96.4222 99° East 478 550 39,000  Level Minneapolis Center
04:59PM 43.1033 -96.2433 99° East 479 551 39,000  Level Minneapolis Center
05:00PM 43.0778 -96.0289 99° East 480 552 39,000  Level Minneapolis Center
05:01PM 43.0561 -95.8511 99° East 479 551 39,000  Level Minneapolis Center
05:02PM 43.0342 -95.6731 100° East 479 551 39,000  Level Minneapolis Center
05:03PM 43.0117 -95.4950 100° East 480 552 39,000  Level Minneapolis Center
05:04PM 42.9892 -95.3178 100° East 477 549 39,000  Level Minneapolis Center
05:05PM 42.9664 -95.1414 100° East 475 547 39,000  Level Minneapolis Center
05:06PM 42.9436 -94.9644 100° East 475 547 39,000  Level Minneapolis Center
05:07PM 42.9156 -94.7547 100° East 473 544 39,000  Level Minneapolis Center
05:08PM 42.8939 -94.5869 100° East 466 536 39,000  Level Minneapolis Center
05:09PM 42.8742 -94.4400 100° East 450 518 39,000  Level Minneapolis Center
05:10PM 42.8478 -94.2450 100° East 441 507 39,000  Level Minneapolis Center
05:11PM 42.8233 -94.0817 101° East 444 511 39,000  Level Minneapolis Center
05:12PM 42.8006 -93.9186 101° East 442 509 39,000  Level Minneapolis Center
05:13PM 42.7772 -93.7542 101° East 446 513 39,000  Level Minneapolis Center
05:14PM 42.7542 -93.5911 101° East 445 512 39,000  Level Minneapolis Center
05:15PM 42.7258 -93.3956 101° East 444 511 39,000  Level Minneapolis Center
05:16PM 42.7022 -93.2311 101° East 446 513 39,000  Level Minneapolis Center
05:17PM 42.6819 -93.1006 102° East 444 511 39,000  Level Chicago Center
05:18PM 42.6700 -92.9372 96° East 439 505 39,000 -300 Level Chicago Center
05:19PM 42.6647 -92.7750 92° East 435 501 38,400 -780 Descending Chicago Center
05:20PM 42.6583 -92.6114 93° East 437 503 37,400 -1,020 Descending Chicago Center
05:21PM 42.6525 -92.4469 93° East 441 507 36,400 -1,080 Descending Chicago Center
05:22PM 42.6439 -92.2453 93° East 449 517 35,200 -1,080 Descending Chicago Center
05:23PM 42.6367 -92.0858 93° East 435 501 34,200 -1,020 Descending Chicago Center
05:24PM 42.6306 -91.9261 93° East 432 497 33,200 -1,020 Descending Chicago Center
05:25PM 42.6231 -91.7708 94° East 423 487 32,200 -960 Descending Chicago Center
05:26PM 42.6164 -91.6231 93° East 407 468 31,300 -1,320 Descending Chicago Center
05:27PM 42.6094 -91.4506 93° East 390 449 29,500 -1,500 Descending Chicago Center
05:28PM 42.6033 -91.3097 93° East 382 440 28,300 -1,200 Descending Chicago Center
05:29PM 42.5967 -91.1661 94° East 387 445 27,100 -1,200 Descending Chicago Center
05:30PM 42.5886 -91.0197 94° East 394 453 25,900 -1,320 Descending Chicago Center
05:31PM 42.5786 -90.8344 94° East 415 478 24,500 -960 Descending Chicago Center
05:32PM 42.5706 -90.6758 94° East 424 488 24,000 -300 Descending Chicago Center
05:33PM 42.5617 -90.5136 94° East 436 502 24,000  Level Chicago Center
05:34PM 42.5514 -90.3542 95° East 432 497 24,000  Level Chicago Center
05:35PM 42.5436 -90.1978 94° East 424 488 24,000  Level Chicago Center
05:36PM 42.5328 -90.0031 94° East 436 502 24,000 -300 Level Chicago Center
05:37PM 42.5214 -89.8369 95° East 438 504 23,400 -780 Descending Chicago Center
05:38PM 42.5142 -89.6781 93° East 427 491 22,400 -1,320 Descending Chicago Center
05:40PM 42.5131 -89.5222 91° East 419 482 20,800 -1,680 Descending Chicago Center
05:41PM 42.5108 -89.3708 91° East 408 470 19,000 -1,740 Descending Chicago Center
05:42PM 42.5092 -89.2233 91° East 395 455 17,300 -1,860 Descending Chicago Center
05:43PM 42.5067 -89.0533 91° East 390 449 15,200 -1,740 Descending Chicago Center
05:44PM 42.4992 -88.9169 94° East 370 426 13,800 -1,560 Descending Chicago Center
05:45PM 42.4619 -88.7894 112° Southeast 367 422 12,100 -1,440 Descending Chicago Center
05:46PM 42.4258 -88.6697 112° Southeast 346 398 10,900 -1,200 Descending Chicago Center
05:47PM 42.3931 -88.5622 112° Southeast 317 365 9,700 -960 Descending Chicago Center
05:48PM 42.3542 -88.4722 120° Southeast 288 331 9,000 -1,200 Descending Chicago Center
05:49PM 42.3056 -88.3872 128° Southeast 279 321 7,300 -1,620 Descending Chicago Center
05:50PM 42.2603 -88.3086 128° Southeast 271 312 5,700 -1,140 Descending Chicago Center
05:51PM 42.2106 -88.2181 127° Southeast 253 291 5,000 -360 Descending Chicago Center
05:52PM 42.1733 -88.1503 127° Southeast 232 267 5,000 -120 Level Chicago Center
05:53PM 42.1289 -88.0892 134° Southeast 230 265 4,800 -240 Descending Chicago Center